sensor_id;sensor_type;location;lat;lon;timestamp;pressure;altitude;pressure_sealevel;temperature;humidity
31346;BME280;21711;49.708;18.568;2022-09-02T00:01:54;97753.56;;;9.64;100.00
31346;BME280;21711;49.708;18.568;2022-09-02T00:04:24;97754.09;;;9.66;100.00
31346;BME280;21711;49.708;18.568;2022-09-02T00:06:53;97756.47;;;9.63;100.00
31346;BME280;21711;49.708;18.568;2022-09-02T00:09:24;97755.63;;;9.57;100.00
31346;BME280;21711;49.708;18.568;2022-09-02T00:11:53;97755.34;;;9.53;100.00
31346;BME280;21711;49.708;18.568;2022-09-02T00:14:36;97756.63;;;9.51;100.00
31346;BME280;21711;49.708;18.568;2022-09-02T00:17:05;97751.13;;;9.52;100.00
31346;BME280;21711;49.708;18.568;2022-09-02T00:19:33;97751.94;;;9.58;100.00
31346;BME280;21711;49.708;18.568;2022-09-02T00:22:02;97751.13;;;9.52;100.00
31346;BME280;21711;49.708;18.568;2022-09-02T00:24:30;97754.53;;;9.53;100.00
31346;BME280;21711;49.708;18.568;2022-09-02T00:26:58;97749.50;;;9.46;100.00
31346;BME280;21711;49.708;18.568;2022-09-02T00:29:26;97736.00;;;9.47;100.00
31346;BME280;21711;49.708;18.568;2022-09-02T00:31:55;97738.66;;;9.47;100.00
31346;BME280;21711;49.708;18.568;2022-09-02T00:34:23;97732.78;;;9.35;100.00
31346;BME280;21711;49.708;18.568;2022-09-02T00:36:51;97730.66;;;9.37;100.00
31346;BME280;21711;49.708;18.568;2022-09-02T00:39:19;97730.38;;;9.33;100.00
31346;BME280;21711;49.708;18.568;2022-09-02T00:41:47;97736.75;;;9.38;100.00
31346;BME280;21711;49.708;18.568;2022-09-02T00:44:16;97729.13;;;9.41;100.00
31346;BME280;21711;49.708;18.568;2022-09-02T00:46:45;97726.47;;;9.41;100.00
31346;BME280;21711;49.708;18.568;2022-09-02T00:49:31;97725.09;;;9.33;100.00
31346;BME280;21711;49.708;18.568;2022-09-02T00:54:33;97721.94;;;9.31;100.00
31346;BME280;21711;49.708;18.568;2022-09-02T00:57:09;97713.47;;;9.29;100.00
31346;BME280;21711;49.708;18.568;2022-09-02T01:00:16;97724.03;;;9.29;100.00
31346;BME280;21711;49.708;18.568;2022-09-02T01:02:52;97719.00;;;9.28;100.00
31346;BME280;21711;49.708;18.568;2022-09-02T01:05:23;97724.03;;;9.29;100.00
31346;BME280;21711;49.708;18.568;2022-09-02T01:07:52;97720.53;;;9.24;100.00
31346;BME280;21711;49.708;18.568;2022-09-02T01:10:25;97720.53;;;9.24;100.00
31346;BME280;21711;49.708;18.568;2022-09-02T01:12:59;97724.22;;;9.23;100.00
31346;BME280;21711;49.708;18.568;2022-09-02T01:15:27;97726.09;;;9.22;100.00
31346;BME280;21711;49.708;18.568;2022-09-02T01:17:57;97730.81;;;9.20;100.00
31346;BME280;21711;49.708;18.568;2022-09-02T01:20:26;97728.41;;;9.18;100.00
31346;BME280;21711;49.708;18.568;2022-09-02T01:22:54;97730.00;;;9.19;100.00
31346;BME280;21711;49.708;18.568;2022-09-02T01:25:26;97727.72;;;9.28;100.00
31346;BME280;21711;49.708;18.568;2022-09-02T01:28:03;97727.72;;;9.28;100.00
31346;BME280;21711;49.708;18.568;2022-09-02T01:30:32;97724.81;;;9.30;100.00
31346;BME280;21711;49.708;18.568;2022-09-02T01:33:00;97723.69;;;9.20;100.00
31346;BME280;21711;49.708;18.568;2022-09-02T01:35:29;97730.53;;;9.16;100.00
31346;BME280;21711;49.708;18.568;2022-09-02T01:37:58;97726.28;;;9.15;100.00
31346;BME280;21711;49.708;18.568;2022-09-02T01:40:29;97721.50;;;9.12;100.00
31346;BME280;21711;49.708;18.568;2022-09-02T01:43:13;97724.41;;;9.11;100.00
31346;BME280;21711;49.708;18.568;2022-09-02T01:45:45;97729.38;;;9.07;100.00
31346;BME280;21711;49.708;18.568;2022-09-02T01:48:15;97721.69;;;9.00;100.00
31346;BME280;21711;49.708;18.568;2022-09-02T01:50:58;97724.88;;;9.07;100.00
31346;BME280;21711;49.708;18.568;2022-09-02T01:53:27;97720.38;;;9.03;100.00
31346;BME280;21711;49.708;18.568;2022-09-02T01:55:54;97717.69;;;8.98;100.00
31346;BME280;21711;49.708;18.568;2022-09-02T01:58:22;97715.78;;;8.93;100.00
31346;BME280;21711;49.708;18.568;2022-09-02T02:00:50;97718.75;;;8.97;100.00
31346;BME280;21711;49.708;18.568;2022-09-02T02:03:19;97712.66;;;8.96;100.00
31346;BME280;21711;49.708;18.568;2022-09-02T02:05:47;97718.44;;;8.93;100.00
31346;BME280;21711;49.708;18.568;2022-09-02T02:08:17;97714.25;;;8.97;100.00
31346;BME280;21711;49.708;18.568;2022-09-02T02:10:45;97714.50;;;8.95;100.00
31346;BME280;21711;49.708;18.568;2022-09-02T02:13:13;97708.00;;;9.03;100.00
31346;BME280;21711;49.708;18.568;2022-09-02T02:15:43;97714.72;;;9.21;100.00
31346;BME280;21711;49.708;18.568;2022-09-02T02:18:11;97710.53;;;9.26;100.00
31346;BME280;21711;49.708;18.568;2022-09-02T02:20:39;97714.56;;;9.33;100.00
31346;BME280;21711;49.708;18.568;2022-09-02T02:23:10;97718.16;;;9.22;100.00
31346;BME280;21711;49.708;18.568;2022-09-02T02:25:38;97724.22;;;9.23;100.00
31346;BME280;21711;49.708;18.568;2022-09-02T02:28:06;97716.75;;;9.14;100.00
31346;BME280;21711;49.708;18.568;2022-09-02T02:30:34;97716.97;;;9.07;100.00
31346;BME280;21711;49.708;18.568;2022-09-02T02:33:03;97716.19;;;9.07;100.00
31346;BME280;21711;49.708;18.568;2022-09-02T02:35:30;97713.28;;;9.03;100.00
31346;BME280;21711;49.708;18.568;2022-09-02T02:37:58;97712.91;;;8.94;100.00
31346;BME280;21711;49.708;18.568;2022-09-02T02:40:30;97709.75;;;8.92;100.00
31346;BME280;21711;49.708;18.568;2022-09-02T02:42:58;97709.75;;;8.92;100.00
31346;BME280;21711;49.708;18.568;2022-09-02T02:45:26;97707.59;;;8.89;100.00
31346;BME280;21711;49.708;18.568;2022-09-02T02:47:53;97709.75;;;8.92;100.00
31346;BME280;21711;49.708;18.568;2022-09-02T02:50:24;97703.41;;;8.93;100.00
31346;BME280;21711;49.708;18.568;2022-09-02T02:52:52;97706.06;;;8.93;100.00
31346;BME280;21711;49.708;18.568;2022-09-02T02:55:24;97706.06;;;8.93;100.00
31346;BME280;21711;49.708;18.568;2022-09-02T02:57:51;97703.09;;;8.85;100.00
31346;BME280;21711;49.708;18.568;2022-09-02T03:00:23;97704.06;;;8.78;100.00
31346;BME280;21711;49.708;18.568;2022-09-02T03:03:05;97706.69;;;8.78;100.00
31346;BME280;21711;49.708;18.568;2022-09-02T03:05:35;97704.81;;;8.74;100.00
31346;BME280;21711;49.708;18.568;2022-09-02T03:08:07;97704.81;;;8.74;100.00
31346;BME280;21711;49.708;18.568;2022-09-02T03:10:35;97707.94;;;8.71;100.00
31346;BME280;21711;49.708;18.568;2022-09-02T03:13:04;97703.19;;;8.67;100.00
31346;BME280;21711;49.708;18.568;2022-09-02T03:15:32;97702.88;;;8.64;100.00
31346;BME280;21711;49.708;18.568;2022-09-02T03:17:59;97706.03;;;8.61;100.00
31346;BME280;21711;49.708;18.568;2022-09-02T03:20:27;97708.06;;;8.53;100.00
31346;BME280;21711;49.708;18.568;2022-09-02T03:22:58;97703.50;;;8.49;100.00
31346;BME280;21711;49.708;18.568;2022-09-02T03:25:29;97704.28;;;8.49;100.00
31346;BME280;21711;49.708;18.568;2022-09-02T03:28:07;97707.97;;;8.48;100.00
31346;BME280;21711;49.708;18.568;2022-09-02T03:30:35;97721.44;;;8.52;100.00
31346;BME280;21711;49.708;18.568;2022-09-02T03:33:05;97713.63;;;8.57;100.00
31346;BME280;21711;49.708;18.568;2022-09-02T03:35:41;97715.47;;;8.57;100.00
31346;BME280;21711;49.708;18.568;2022-09-02T03:38:12;97719.06;;;8.50;100.00
31346;BME280;21711;49.708;18.568;2022-09-02T03:40:39;97718.47;;;8.43;100.00
31346;BME280;21711;49.708;18.568;2022-09-02T03:43:08;97716.81;;;8.37;100.00
31346;BME280;21711;49.708;18.568;2022-09-02T03:45:36;97719.47;;;8.37;100.00
31346;BME280;21711;49.708;18.568;2022-09-02T03:48:12;97718.88;;;8.35;100.00
31346;BME280;21711;49.708;18.568;2022-09-02T03:50:43;97719.94;;;8.34;100.00
31346;BME280;21711;49.708;18.568;2022-09-02T03:53:15;97714.44;;;8.35;100.00
31346;BME280;21711;49.708;18.568;2022-09-02T03:55:49;97726.50;;;8.31;100.00
31346;BME280;21711;49.708;18.568;2022-09-02T03:58:19;97727.22;;;8.26;100.00
31346;BME280;21711;49.708;18.568;2022-09-02T04:00:53;97721.72;;;8.28;100.00
31346;BME280;21711;49.708;18.568;2022-09-02T04:03:23;97720.13;;;8.27;100.00
31346;BME280;21711;49.708;18.568;2022-09-02T04:05:51;97723.00;;;8.25;100.00
31346;BME280;21711;49.708;18.568;2022-09-02T04:08:22;97719.88;;;8.28;100.00
31346;BME280;21711;49.708;18.568;2022-09-02T04:10:51;97714.38;;;8.30;100.00
31346;BME280;21711;49.708;18.568;2022-09-02T04:13:19;97717.53;;;8.32;100.00
31346;BME280;21711;49.708;18.568;2022-09-02T04:15:47;97719.75;;;8.40;100.00
31346;BME280;21711;49.708;18.568;2022-09-02T04:18:20;97722.19;;;8.47;100.00
31346;BME280;21711;49.708;18.568;2022-09-02T04:20:48;97719.66;;;8.80;100.00
31346;BME280;21711;49.708;18.568;2022-09-02T04:23:16;97723.13;;;9.18;100.00
31346;BME280;21711;49.708;18.568;2022-09-02T04:25:45;97717.06;;;9.56;100.00
31346;BME280;21711;49.708;18.568;2022-09-02T04:28:15;97713.50;;;9.72;100.00
31346;BME280;21711;49.708;18.568;2022-09-02T04:30:42;97722.59;;;9.97;100.00
31346;BME280;21711;49.708;18.568;2022-09-02T04:33:12;97721.88;;;10.12;100.00
31346;BME280;21711;49.708;18.568;2022-09-02T04:35:42;97724.00;;;10.26;100.00
31346;BME280;21711;49.708;18.568;2022-09-02T04:38:12;97715.78;;;10.17;100.00
31346;BME280;21711;49.708;18.568;2022-09-02T04:40:45;97715.84;;;10.33;100.00
31346;BME280;21711;49.708;18.568;2022-09-02T04:43:14;97725.72;;;10.48;100.00
31346;BME280;21711;49.708;18.568;2022-09-02T04:45:44;97724.19;;;10.73;100.00
31346;BME280;21711;49.708;18.568;2022-09-02T04:48:15;97722.38;;;11.10;100.00
31346;BME280;21711;49.708;18.568;2022-09-02T04:50:43;97720.22;;;11.64;100.00
31346;BME280;21711;49.708;18.568;2022-09-02T04:53:11;97726.78;;;11.82;100.00
31346;BME280;21711;49.708;18.568;2022-09-02T04:55:41;97728.09;;;12.05;100.00
31346;BME280;21711;49.708;18.568;2022-09-02T04:58:11;97732.38;;;12.52;100.00
31346;BME280;21711;49.708;18.568;2022-09-02T05:00:40;97734.53;;;12.89;100.00
31346;BME280;21711;49.708;18.568;2022-09-02T05:03:11;97739.03;;;12.94;100.00
31346;BME280;21711;49.708;18.568;2022-09-02T05:05:41;97735.50;;;13.09;100.00
31346;BME280;21711;49.708;18.568;2022-09-02T05:13:41;97732.56;;;14.00;100.00
31346;BME280;21711;49.708;18.568;2022-09-02T05:18:10;97736.56;;;14.84;100.00
31346;BME280;21711;49.708;18.568;2022-09-02T05:22:12;97725.00;;;15.42;100.00
31346;BME280;21711;49.708;18.568;2022-09-02T05:25:25;97725.66;;;15.81;100.00
31346;BME280;21711;49.708;18.568;2022-09-02T05:27:53;97724.53;;;15.68;100.00
31346;BME280;21711;49.708;18.568;2022-09-02T05:30:20;97722.34;;;15.56;100.00
31346;BME280;21711;49.708;18.568;2022-09-02T05:32:49;97722.69;;;15.68;100.00
31346;BME280;21711;49.708;18.568;2022-09-02T05:35:17;97718.28;;;16.06;100.00
31346;BME280;21711;49.708;18.568;2022-09-02T05:37:45;97725.38;;;16.24;100.00
31346;BME280;21711;49.708;18.568;2022-09-02T05:40:14;97726.91;;;16.90;100.00
31346;BME280;21711;49.708;18.568;2022-09-02T05:42:43;97725.66;;;17.33;100.00
31346;BME280;21711;49.708;18.568;2022-09-02T05:45:13;97731.00;;;17.65;100.00
31346;BME280;21711;49.708;18.568;2022-09-02T05:47:43;97736.22;;;17.79;89.95
31346;BME280;21711;49.708;18.568;2022-09-02T05:50:11;97730.44;;;18.35;88.24
31346;BME280;21711;49.708;18.568;2022-09-02T05:52:43;97736.00;;;19.27;83.53
31346;BME280;21711;49.708;18.568;2022-09-02T05:55:11;97736.31;;;18.99;86.80
31346;BME280;21711;49.708;18.568;2022-09-02T05:57:39;97741.03;;;19.29;82.78
31346;BME280;21711;49.708;18.568;2022-09-02T06:00:09;97744.09;;;19.66;82.82
31346;BME280;21711;49.708;18.568;2022-09-02T06:02:50;97743.84;;;19.98;78.17
31346;BME280;21711;49.708;18.568;2022-09-02T06:05:24;97747.63;;;21.00;67.14
31346;BME280;21711;49.708;18.568;2022-09-02T06:07:59;97733.78;;;21.57;55.84
31346;BME280;21711;49.708;18.568;2022-09-02T06:10:29;97743.50;;;21.95;54.46
31346;BME280;21711;49.708;18.568;2022-09-02T06:12:56;97744.03;;;22.26;53.07
31346;BME280;21711;49.708;18.568;2022-09-02T06:15:26;97740.63;;;21.54;53.51
31346;BME280;21711;49.708;18.568;2022-09-02T06:17:54;97753.56;;;22.61;50.76
31346;BME280;21711;49.708;18.568;2022-09-02T06:20:26;97746.56;;;22.72;50.74
31346;BME280;21711;49.708;18.568;2022-09-02T06:22:56;97736.88;;;22.17;52.56
31346;BME280;21711;49.708;18.568;2022-09-02T06:25:24;97745.13;;;22.37;54.36
31346;BME280;21711;49.708;18.568;2022-09-02T06:27:51;97742.66;;;22.98;50.76
31346;BME280;21711;49.708;18.568;2022-09-02T06:30:19;97733.47;;;22.58;53.08
31346;BME280;21711;49.708;18.568;2022-09-02T06:32:46;97740.66;;;22.41;53.39
31346;BME280;21711;49.708;18.568;2022-09-02T06:35:18;97740.97;;;22.52;53.51
31346;BME280;21711;49.708;18.568;2022-09-02T06:37:46;97746.59;;;23.01;52.30
31346;BME280;21711;49.708;18.568;2022-09-02T06:40:14;97744.00;;;23.49;51.39
31346;BME280;21711;49.708;18.568;2022-09-02T06:42:42;97745.94;;;24.49;49.45
31346;BME280;21711;49.708;18.568;2022-09-02T06:45:24;97750.63;;;25.74;43.17
31346;BME280;21711;49.708;18.568;2022-09-02T06:47:53;97753.63;;;26.19;42.74
31346;BME280;21711;49.708;18.568;2022-09-02T06:50:21;97759.53;;;26.52;40.51
31346;BME280;21711;49.708;18.568;2022-09-02T06:52:49;97754.66;;;26.34;41.00
31346;BME280;21711;49.708;18.568;2022-09-02T06:55:17;97750.16;;;27.11;39.55
31346;BME280;21711;49.708;18.568;2022-09-02T06:57:45;97757.94;;;27.12;39.95
31346;BME280;21711;49.708;18.568;2022-09-02T07:00:14;97750.78;;;27.73;37.69
31346;BME280;21711;49.708;18.568;2022-09-02T07:02:42;97750.53;;;27.92;37.85
31346;BME280;21711;49.708;18.568;2022-09-02T07:05:32;97746.28;;;27.95;37.38
31346;BME280;21711;49.708;18.568;2022-09-02T07:08:00;97739.97;;;28.36;35.98
31346;BME280;21711;49.708;18.568;2022-09-02T07:10:27;97746.38;;;28.80;36.37
31346;BME280;21711;49.708;18.568;2022-09-02T07:12:56;97743.28;;;28.78;35.43
31346;BME280;21711;49.708;18.568;2022-09-02T07:15:24;97741.81;;;28.21;35.77
31346;BME280;21711;49.708;18.568;2022-09-02T07:17:51;97752.28;;;28.93;35.35
31346;BME280;21711;49.708;18.568;2022-09-02T07:20:33;97754.38;;;29.73;35.22
31346;BME280;21711;49.708;18.568;2022-09-02T07:23:02;97759.53;;;31.04;31.72
31346;BME280;21711;49.708;18.568;2022-09-02T07:25:33;97757.06;;;31.31;30.74
31346;BME280;21711;49.708;18.568;2022-09-02T07:28:00;97760.78;;;31.56;30.32
31346;BME280;21711;49.708;18.568;2022-09-02T07:30:31;97754.31;;;31.88;30.39
31346;BME280;21711;49.708;18.568;2022-09-02T07:33:11;97761.66;;;32.37;29.98
31346;BME280;21711;49.708;18.568;2022-09-02T07:35:42;97744.28;;;29.66;33.72
31346;BME280;21711;49.708;18.568;2022-09-02T07:38:12;97746.97;;;29.99;33.06
31346;BME280;21711;49.708;18.568;2022-09-02T07:40:42;97753.63;;;31.16;31.27
31346;BME280;21711;49.708;18.568;2022-09-02T07:43:10;97758.63;;;31.85;30.29
31346;BME280;21711;49.708;18.568;2022-09-02T07:45:39;97751.13;;;30.73;32.05
31346;BME280;21711;49.708;18.568;2022-09-02T07:48:10;97753.41;;;32.40;30.14
31346;BME280;21711;49.708;18.568;2022-09-02T07:50:38;97745.59;;;31.55;30.86
31346;BME280;21711;49.708;18.568;2022-09-02T07:53:09;97755.25;;;32.12;30.36
31346;BME280;21711;49.708;18.568;2022-09-02T07:55:38;97748.38;;;32.35;29.36
31346;BME280;21711;49.708;18.568;2022-09-02T07:58:09;97746.44;;;31.97;30.78
31346;BME280;21711;49.708;18.568;2022-09-02T08:00:42;97745.34;;;32.30;30.17
31346;BME280;21711;49.708;18.568;2022-09-02T08:03:12;97742.94;;;31.93;31.45
31346;BME280;21711;49.708;18.568;2022-09-02T08:05:45;97742.84;;;32.04;31.44
31346;BME280;21711;49.708;18.568;2022-09-02T08:08:15;97736.69;;;32.31;29.49
31346;BME280;21711;49.708;18.568;2022-09-02T08:10:50;97733.38;;;31.67;30.06
31346;BME280;21711;49.708;18.568;2022-09-02T08:13:19;97740.44;;;31.04;31.70
31346;BME280;21711;49.708;18.568;2022-09-02T08:15:48;97743.59;;;30.95;31.59
31346;BME280;21711;49.708;18.568;2022-09-02T08:18:18;97730.44;;;30.68;32.36
31346;BME280;21711;49.708;18.568;2022-09-02T08:20:49;97740.31;;;31.26;30.81
31346;BME280;21711;49.708;18.568;2022-09-02T08:23:17;97729.53;;;32.45;28.69
31346;BME280;21711;49.708;18.568;2022-09-02T08:26:03;97744.56;;;31.83;30.12
31346;BME280;21711;49.708;18.568;2022-09-02T08:28:32;97731.31;;;32.90;29.31
31346;BME280;21711;49.708;18.568;2022-09-02T08:31:04;97738.81;;;31.14;29.49
31346;BME280;21711;49.708;18.568;2022-09-02T08:33:32;97731.47;;;31.00;30.33
31346;BME280;21711;49.708;18.568;2022-09-02T08:36:08;97738.44;;;31.12;30.52
31346;BME280;21711;49.708;18.568;2022-09-02T08:38:37;97737.41;;;30.87;31.40
31346;BME280;21711;49.708;18.568;2022-09-02T08:41:24;97735.50;;;33.02;28.69
31346;BME280;21711;49.708;18.568;2022-09-02T08:43:55;97720.72;;;32.30;28.15
31346;BME280;21711;49.708;18.568;2022-09-02T08:46:27;97729.47;;;32.83;29.05
31346;BME280;21711;49.708;18.568;2022-09-02T08:48:59;97724.75;;;32.52;28.44
31346;BME280;21711;49.708;18.568;2022-09-02T08:51:57;97725.47;;;32.60;28.37
31346;BME280;21711;49.708;18.568;2022-09-02T08:54:40;97723.44;;;31.42;28.84
31346;BME280;21711;49.708;18.568;2022-09-02T08:57:10;97708.03;;;29.91;29.77
31346;BME280;21711;49.708;18.568;2022-09-02T08:59:40;97708.56;;;28.46;32.38
31346;BME280;21711;49.708;18.568;2022-09-02T09:02:35;97704.03;;;30.43;31.93
31346;BME280;21711;49.708;18.568;2022-09-02T09:05:36;97704.69;;;31.86;28.77
31346;BME280;21711;49.708;18.568;2022-09-02T09:08:24;97711.81;;;32.57;27.14
31346;BME280;21711;49.708;18.568;2022-09-02T09:11:38;97696.88;;;30.78;28.46
31346;BME280;21711;49.708;18.568;2022-09-02T09:17:07;97708.75;;;31.70;28.28
31346;BME280;21711;49.708;18.568;2022-09-02T09:19:53;97693.59;;;32.74;27.67
31346;BME280;21711;49.708;18.568;2022-09-02T09:22:30;97693.84;;;32.56;28.32
31346;BME280;21711;49.708;18.568;2022-09-02T09:24:58;97685.44;;;30.01;29.49
31346;BME280;21711;49.708;18.568;2022-09-02T09:27:26;97686.22;;;29.11;31.56
31346;BME280;21711;49.708;18.568;2022-09-02T09:29:54;97692.75;;;30.41;30.80
31346;BME280;21711;49.708;18.568;2022-09-02T09:32:35;97685.06;;;29.96;29.69
31346;BME280;21711;49.708;18.568;2022-09-02T09:35:11;97686.56;;;32.41;27.07
31346;BME280;21711;49.708;18.568;2022-09-02T09:42:53;97675.69;;;28.02;32.91
31346;BME280;21711;49.708;18.568;2022-09-02T09:45:32;97681.19;;;29.49;30.20
31346;BME280;21711;49.708;18.568;2022-09-02T09:50:39;97671.06;;;29.24;30.36
31346;BME280;21711;49.708;18.568;2022-09-02T09:53:32;97675.34;;;29.18;29.42
31346;BME280;21711;49.708;18.568;2022-09-02T09:58:47;97660.53;;;29.92;28.69
31346;BME280;21711;49.708;18.568;2022-09-02T10:04:11;97655.16;;;28.08;31.62
31346;BME280;21711;49.708;18.568;2022-09-02T10:07:10;97648.44;;;28.77;29.32
31346;BME280;21711;49.708;18.568;2022-09-02T10:09:40;97634.13;;;29.27;30.18
31346;BME280;21711;49.708;18.568;2022-09-02T10:12:11;97647.31;;;28.96;30.04
31346;BME280;21711;49.708;18.568;2022-09-02T10:14:44;97640.97;;;27.74;30.89
31346;BME280;21711;49.708;18.568;2022-09-02T10:17:55;97647.72;;;29.05;30.19
31346;BME280;21711;49.708;18.568;2022-09-02T10:26:46;97642.66;;;29.76;30.07
31346;BME280;21711;49.708;18.568;2022-09-02T10:35:48;97638.13;;;27.07;32.52
31346;BME280;21711;49.708;18.568;2022-09-02T10:38:41;97633.81;;;27.05;32.35
31346;BME280;21711;49.708;18.568;2022-09-02T10:44:25;97640.53;;;25.58;33.04
31346;BME280;21711;49.708;18.568;2022-09-02T10:59:05;97634.72;;;28.44;33.15
31346;BME280;21711;49.708;18.568;2022-09-02T11:01:42;97654.38;;;28.12;32.31
31346;BME280;21711;49.708;18.568;2022-09-02T11:07:07;97632.41;;;28.42;32.87
31346;BME280;21711;49.708;18.568;2022-09-02T11:09:50;97628.31;;;27.40;32.49
31346;BME280;21711;49.708;18.568;2022-09-02T11:12:33;97630.78;;;27.60;33.31
31346;BME280;21711;49.708;18.568;2022-09-02T11:27:10;97630.84;;;25.34;37.52
31346;BME280;21711;49.708;18.568;2022-09-02T11:30:05;97638.41;;;25.71;37.13
31346;BME280;21711;49.708;18.568;2022-09-02T11:32:43;97637.38;;;27.13;32.74
31346;BME280;21711;49.708;18.568;2022-09-02T11:35:23;97631.47;;;28.09;34.90
31346;BME280;21711;49.708;18.568;2022-09-02T11:37:59;97627.72;;;28.35;31.77
31346;BME280;21711;49.708;18.568;2022-09-02T11:43:51;97628.00;;;25.50;37.35
31346;BME280;21711;49.708;18.568;2022-09-02T11:49:49;97617.13;;;24.17;39.44
31346;BME280;21711;49.708;18.568;2022-09-02T11:53:12;97617.22;;;23.69;41.60
31346;BME280;21711;49.708;18.568;2022-09-02T11:55:41;97617.00;;;24.29;36.69
31346;BME280;21711;49.708;18.568;2022-09-02T11:58:39;97609.38;;;24.75;38.54
31346;BME280;21711;49.708;18.568;2022-09-02T12:01:37;97604.91;;;24.63;38.89
31346;BME280;21711;49.708;18.568;2022-09-02T12:09:55;97600.41;;;23.75;41.33
31346;BME280;21711;49.708;18.568;2022-09-02T12:18:11;97586.59;;;22.80;41.58
31346;BME280;21711;49.708;18.568;2022-09-02T12:28:53;97577.69;;;22.64;44.50
31346;BME280;21711;49.708;18.568;2022-09-02T12:31:43;97581.91;;;22.93;42.28
31346;BME280;21711;49.708;18.568;2022-09-02T12:37:00;97580.06;;;21.71;44.22
31346;BME280;21711;49.708;18.568;2022-09-02T12:45:10;97579.44;;;21.36;44.72
31346;BME280;21711;49.708;18.568;2022-09-02T12:47:48;97568.44;;;21.17;47.46
31346;BME280;21711;49.708;18.568;2022-09-02T12:50:27;97574.53;;;20.80;47.00
31346;BME280;21711;49.708;18.568;2022-09-02T12:53:24;97565.19;;;20.65;48.00
31346;BME280;21711;49.708;18.568;2022-09-02T12:58:54;97572.97;;;20.45;47.64
31346;BME280;21711;49.708;18.568;2022-09-02T13:02:03;97576.63;;;20.06;47.84
31346;BME280;21711;49.708;18.568;2022-09-02T13:05:13;97567.84;;;20.52;46.98
31346;BME280;21711;49.708;18.568;2022-09-02T13:32:24;97559.94;;;19.40;51.08
31346;BME280;21711;49.708;18.568;2022-09-02T13:34:56;97555.50;;;20.17;50.03
31346;BME280;21711;49.708;18.568;2022-09-02T13:37:43;97556.88;;;20.57;47.75
31346;BME280;21711;49.708;18.568;2022-09-02T13:40:34;97558.53;;;20.16;46.21
31346;BME280;21711;49.708;18.568;2022-09-02T13:45:40;97553.78;;;19.91;49.18
31346;BME280;21711;49.708;18.568;2022-09-02T13:48:25;97556.41;;;19.79;49.43
31346;BME280;21711;49.708;18.568;2022-09-02T13:50:54;97554.03;;;19.26;49.64
31346;BME280;21711;49.708;18.568;2022-09-02T13:53:42;97547.69;;;18.91;51.22
31346;BME280;21711;49.708;18.568;2022-09-02T13:56:30;97550.22;;;18.79;52.20
31346;BME280;21711;49.708;18.568;2022-09-02T13:58:58;97553.66;;;18.88;53.48
31346;BME280;21711;49.708;18.568;2022-09-02T14:01:35;97553.47;;;18.93;53.27
31346;BME280;21711;49.708;18.568;2022-09-02T14:04:14;97541.31;;;19.14;51.95
31346;BME280;21711;49.708;18.568;2022-09-02T14:06:45;97540.78;;;19.81;52.59
31346;BME280;21711;49.708;18.568;2022-09-02T14:09:24;97551.31;;;19.86;50.05
31346;BME280;21711;49.708;18.568;2022-09-02T14:11:53;97542.09;;;19.96;49.80
31346;BME280;21711;49.708;18.568;2022-09-02T14:14:23;97535.06;;;19.61;48.51
31346;BME280;21711;49.708;18.568;2022-09-02T14:16:51;97540.97;;;19.76;48.76
31346;BME280;21711;49.708;18.568;2022-09-02T14:24:26;97545.31;;;19.59;48.53
31346;BME280;21711;49.708;18.568;2022-09-02T14:26:56;97542.84;;;19.54;51.57
31346;BME280;21711;49.708;18.568;2022-09-02T14:29:27;97545.00;;;19.61;50.48
31346;BME280;21711;49.708;18.568;2022-09-02T14:32:12;97539.19;;;19.58;51.62
31346;BME280;21711;49.708;18.568;2022-09-02T14:34:45;97544.69;;;19.62;50.87
31346;BME280;21711;49.708;18.568;2022-09-02T14:37:27;97541.28;;;19.53;51.10
31346;BME280;21711;49.708;18.568;2022-09-02T14:40:10;97541.97;;;19.41;50.61
31346;BME280;21711;49.708;18.568;2022-09-02T14:42:50;97539.66;;;19.30;50.40
31346;BME280;21711;49.708;18.568;2022-09-02T14:45:32;97543.47;;;19.29;52.99
31346;BME280;21711;49.708;18.568;2022-09-02T14:48:21;97545.00;;;18.91;52.78
31346;BME280;21711;49.708;18.568;2022-09-02T14:50:58;97539.50;;;18.79;52.86
31346;BME280;21711;49.708;18.568;2022-09-02T14:53:29;97541.16;;;19.10;54.62
31346;BME280;21711;49.708;18.568;2022-09-02T14:55:57;97540.13;;;18.85;53.18
31346;BME280;21711;49.708;18.568;2022-09-02T14:58:26;97537.19;;;18.69;54.11
31346;BME280;21711;49.708;18.568;2022-09-02T15:00:57;97532.47;;;18.57;54.92
31346;BME280;21711;49.708;18.568;2022-09-02T15:03:27;97537.72;;;18.44;51.63
31346;BME280;21711;49.708;18.568;2022-09-02T15:05:56;97543.50;;;18.55;53.94
31346;BME280;21711;49.708;18.568;2022-09-02T15:08:24;97539.06;;;18.77;53.30
31346;BME280;21711;49.708;18.568;2022-09-02T15:10:52;97533.84;;;18.80;53.86
31346;BME280;21711;49.708;18.568;2022-09-02T15:13:28;97539.69;;;18.74;55.83
31346;BME280;21711;49.708;18.568;2022-09-02T15:15:59;97535.94;;;18.66;54.91
31346;BME280;21711;49.708;18.568;2022-09-02T15:18:26;97533.06;;;18.71;55.59
31346;BME280;21711;49.708;18.568;2022-09-02T15:20:53;97531.19;;;18.72;57.67
31346;BME280;21711;49.708;18.568;2022-09-02T15:23:21;97531.25;;;18.36;55.39
31346;BME280;21711;49.708;18.568;2022-09-02T15:25:48;97530.03;;;18.07;53.38
31346;BME280;21711;49.708;18.568;2022-09-02T15:28:16;97530.34;;;18.14;53.16
31346;BME280;21711;49.708;18.568;2022-09-02T15:30:43;97527.50;;;18.20;56.48
31346;BME280;21711;49.708;18.568;2022-09-02T15:33:11;97537.91;;;18.21;56.12
31346;BME280;21711;49.708;18.568;2022-09-02T15:35:44;97539.16;;;18.15;56.51
31346;BME280;21711;49.708;18.568;2022-09-02T15:38:14;97532.38;;;18.09;54.22
31346;BME280;21711;49.708;18.568;2022-09-02T15:40:42;97536.47;;;18.24;56.66
31346;BME280;21711;49.708;18.568;2022-09-02T15:43:12;97541.81;;;18.33;54.86